Terminal Aerodrome Forecast
Issued by NWS

Home | Current Version | Previous Version | Text Only | Print | Product List | Glossary On
Versions: 1 2 3 4 5 6 7 8 9 10 11 12 13 14 15 16 17 18 19 20 21 22 23 24 25 26 27 28 29 30 31 32 33 34 35 36 37 38 39 40 41 42 43
000
FTUS43 KPAH 042200 AAA
TAFOWB
TAF AMD
KOWB 042200Z 0422/0518 35012G18KT 3SM -SN BR OVC025
      TEMPO 0422/0502 1/4SM +SN FG OVC010
     FM050200 35013G21KT 3SM -SN BR OVC008
     FM051100 01009KT 5SM BR SCT005 OVC025
     FM051500 36009KT P6SM OVC050=

USA.gov is the U.S. government's official web portal to all federal, state and local government web resources and services.